Time;durP1;ratioP1;P1;durP2;ratioP2;P2;SDS_P1;SDS_P2;PMS_P1;PMS_P2;Temp;Humidity;BMP_temperature;BMP_pressure;BME280_temperature;BME280_humidity;BME280_pressure;Samples;Min_cycle;Max_cycle;Signal;HPM_P1;HPM_P2
2021/11/16 00:00:16;;;;;;;;;;;;;;;;;;344276;28;1016;-73
2021/11/16 00:00:26;;;;;;;;;;;;;;;;;;344292;28;901;-76
2021/11/16 00:00:57;;;;;;;;;;;;;;;;;;345516;28;1123;-75
2021/11/16 00:01:08;;;;;;;;;;;;;;;;;;340075;29;1047;-75
2021/11/16 00:01:23;;;;;;;;;;;;;;;;;;340313;29;962;-75
2021/11/16 00:02:00;;;;;;;;;;;;;;;;;;340312;29;953;-76
2021/11/16 00:03:03;;;;;;;;;;;;;;;;;;344807;28;937;-75
2021/11/16 00:03:14;;;;;;;;;;;;;;;;;;345617;28;989;-75
2021/11/16 00:03:24;;;;;;;;;;;;;;;;;;345485;28;1004;-75
2021/11/16 00:03:35;;;;;;;;;;;;;;;;;;345666;28;1035;-75
2021/11/16 00:03:45;;;;;;;;;;;;;;;;;;344355;28;981;-74
2021/11/16 00:03:56;;;;;;;;;;;;;;;;;;344279;28;799;-75
2021/11/16 00:04:06;;;;;;;;;;;;;;;;;;344220;28;948;-76
2021/11/16 00:04:17;;;;;;;;;;;;;;;;;;344340;28;830;-75
2021/11/16 00:04:27;;;;;;;;;;;;;;;;;;344302;28;973;-74
2021/11/16 00:04:38;;;;;;;;;;;;;;;;;;342923;28;834;-76
2021/11/16 00:04:50;;;;;;;;;;;;;;;;;;342950;28;981;-75
2021/11/16 00:05:00;;;;;;;;;;;;;;;;;;342940;28;854;-75
2021/11/16 00:05:11;;;;;;;;;;;;;;;;;;342961;28;854;-76
2021/11/16 00:05:21;;;;;;;;;;;;;;;;;;342997;28;1020;-76
2021/11/16 00:05:32;;;;;;;;;;;;;;;;;;342832;28;1005;-76
2021/11/16 00:05:42;;;;;;;;;;;;;;;;;;343667;28;1020;-75
2021/11/16 00:05:53;;;;;;;;;;;;;;;;;;344294;28;775;-76
2021/11/16 00:06:03;;;;;;;;;;;;;;;;;;342978;28;795;-75
2021/11/16 00:06:14;;;;;;;;;;;;;;;;;;343014;28;849;-75
2021/11/16 00:06:29;;;;;;;;;;;;;;;;;;342908;28;1040;-76
2021/11/16 00:07:00;;;;;;;;;;;;;;;;;;344326;28;996;-76
2021/11/16 00:07:11;;;;;;;;;;;;;;;;;;340253;29;1097;-76
2021/11/16 00:07:21;;;;;;;;;;;;;;;;;;338999;29;815;-76
2021/11/16 00:07:32;;;;;;;;;;;;;;;;;;340754;29;966;-76
2021/11/16 00:07:42;;;;;;;;;;;;;;;;;;341545;29;996;-75
2021/11/16 00:07:53;;;;;;;;;;;;;;;;;;341526;29;938;-75
2021/11/16 00:08:30;;;;;;;;;;;;;;;;;;342907;28;930;-74
2021/11/16 00:08:40;;;;;;;;;;;;;;;;;;343022;28;822;-75
2021/11/16 00:08:50;;;;;;;;;;;;;;;;;;342966;28;925;-75
2021/11/16 00:09:02;;;;;;;;;;;;;;;;;;342883;28;985;-74
2021/11/16 00:09:13;;;;;;;;;;;;;;;;;;342772;28;1647;-75
2021/11/16 00:09:49;;;;;;;;;;;;;;;;;;344372;28;1001;-75
2021/11/16 00:10:00;;;;;;;;;;;;;;;;;;344194;28;996;-75
2021/11/16 00:10:19;;;;;;;;;;;;;;;;;;344251;28;997;-75
2021/11/16 00:10:29;;;;;;;;;;;;;;;;;;342966;28;898;-75
2021/11/16 00:10:40;;;;;;;;;;;;;;;;;;343034;28;831;-75
2021/11/16 00:10:51;;;;;;;;;;;;;;;;;;342971;28;980;-76
2021/11/16 00:11:03;;;;;;;;;;;;;;;;;;343000;28;937;-75
2021/11/16 00:11:14;;;;;;;;;;;;;;;;;;344179;28;819;-76
2021/11/16 00:11:24;;;;;;;;;;;;;;;;;;344343;28;803;-75
2021/11/16 00:11:35;;;;;;;;;;;;;;;;;;344301;28;897;-75
2021/11/16 00:11:46;;;;;;;;;;;;;;;;;;344309;28;1180;-75
2021/11/16 00:12:22;;;;;;;;;;;;;;;;;;344406;28;855;-75
2021/11/16 00:12:33;;;;;;;;;;;;;;;;;;344356;28;498;-76
2021/11/16 00:12:43;;;;;;;;;;;;;;;;;;345492;28;1440;-76
2021/11/16 00:13:19;;;;;;;;;;;;;;;;;;345644;28;878;-75
2021/11/16 00:13:30;;;;;;;;;;;;;;;;;;345700;28;908;-75
2021/11/16 00:13:41;;;;;;;;;;;;;;;;;;345677;28;1184;-75
2021/11/16 00:13:51;;;;;;;;;;;;;;;;;;345697;28;921;-75
2021/11/16 00:14:02;;;;;;;;;;;;;;;;;;345489;28;1127;-75
2021/11/16 00:14:13;;;;;;;;;;;;;;;;;;344193;28;1001;-75
2021/11/16 00:14:23;;;;;;;;;;;;;;;;;;344174;28;783;-75
2021/11/16 00:14:34;;;;;;;;;;;;;;;;;;345608;28;881;-75
2021/11/16 00:14:45;;;;;;;;;;;;;;;;;;345595;28;795;-75
2021/11/16 00:14:56;;;;;;;;;;;;;;;;;;345650;28;980;-75
2021/11/16 00:15:07;;;;;;;;;;;;;;;;;;345699;28;993;-75
2021/11/16 00:15:17;;;;;;;;;;;;;;;;;;345653;28;1012;-75
2021/11/16 00:15:28;;;;;;;;;;;;;;;;;;345674;28;846;-76
2021/11/16 00:15:39;;;;;;;;;;;;;;;;;;345694;28;968;-76
2021/11/16 00:15:50;;;;;;;;;;;;;;;;;;345642;28;957;-76
2021/11/16 00:16:06;;;;;;;;;;;;;;;;;;345698;28;929;-76
2021/11/16 00:16:17;;;;;;;;;;;;;;;;;;346996;28;997;-75
2021/11/16 00:16:27;;;;;;;;;;;;;;;;;;347073;28;830;-75
2021/11/16 00:16:39;;;;;;;;;;;;;;;;;;346920;28;854;-75
2021/11/16 00:16:50;;;;;;;;;;;;;;;;;;346971;28;834;-76
2021/11/16 00:17:27;;;;;;;;;;;;;;;;;;347030;28;933;-75
2021/11/16 00:17:37;;;;;;;;;;;;;;;;;;346989;28;971;-74
2021/11/16 00:17:48;;;;;;;;;;;;;;;;;;347020;28;973;-73
2021/11/16 00:17:58;;;;;;;;;;;;;;;;;;346975;28;795;-74
2021/11/16 00:18:12;;;;;;;;;;;;;;;;;;345695;28;1008;-76
2021/11/16 00:18:27;;;;;;;;;;;;;;;;;;345601;28;1088;-75
2021/11/16 00:18:37;;;;;;;;;;;;;;;;;;345700;28;977;-75
2021/11/16 00:18:56;;;;;;;;;;;;;;;;;;345786;28;968;-76
2021/11/16 00:19:11;;;;;;;;;;;;;;;;;;345875;28;1008;-75
2021/11/16 00:19:42;;;;;;;;;;;;;;;;;;345796;28;997;-75
2021/11/16 00:19:53;;;;;;;;;;;;;;;;;;345995;28;987;-73
2021/11/16 00:20:06;;;;;;;;;;;;;;;;;;346446;28;797;-74
2021/11/16 00:20:17;;;;;;;;;;;;;;;;;;347294;28;924;-75
2021/11/16 00:20:28;;;;;;;;;;;;;;;;;;349048;28;1118;-76
2021/11/16 00:20:42;;;;;;;;;;;;;;;;;;351660;28;792;-75
2021/11/16 00:20:53;;;;;;;;;;;;;;;;;;351549;28;960;-76
2021/11/16 00:21:29;;;;;;;;;;;;;;;;;;351545;28;828;-74
2021/11/16 00:21:41;;;;;;;;;;;;;;;;;;351615;28;939;-76
2021/11/16 00:21:52;;;;;;;;;;;;;;;;;;351571;28;987;-74
2021/11/16 00:22:03;;;;;;;;;;;;;;;;;;351609;28;868;-75
2021/11/16 00:22:40;;;;;;;;;;;;;;;;;;351461;28;952;-75
2021/11/16 00:23:23;;;;;;;;;;;;;;;;;;351466;28;603;-76
2021/11/16 00:23:35;;;;;;;;;;;;;;;;;;351531;28;1010;-75
2021/11/16 00:23:47;;;;;;;;;;;;;;;;;;351509;28;987;-75
2021/11/16 00:24:35;;;;;;;;;;;;;;;;;;351452;28;833;-75
2021/11/16 00:25:08;;;;;;;;;;;;;;;;;;351616;28;805;-76
2021/11/16 00:25:22;;;;;;;;;;;;;;;;;;351472;28;964;-74
2021/11/16 00:25:36;;;;;;;;;;;;;;;;;;351508;28;1012;-74
2021/11/16 00:26:15;;;;;;;;;;;;;;;;;;351490;28;825;-75
2021/11/16 00:26:25;;;;;;;;;;;;;;;;;;351439;28;932;-75
2021/11/16 00:26:36;;;;;;;;;;;;;;;;;;351494;28;1121;-75
2021/11/16 00:26:46;;;;;;;;;;;;;;;;;;351527;28;1026;-75
2021/11/16 00:26:57;;;;;;;;;;;;;;;;;;351508;28;841;-75
2021/11/16 00:27:07;;;;;;;;;;;;;;;;;;351499;28;876;-75
2021/11/16 00:27:18;;;;;;;;;;;;;;;;;;351578;28;848;-75
2021/11/16 00:27:28;;;;;;;;;;;;;;;;;;351382;28;975;-75
2021/11/16 00:28:04;;;;;;;;;;;;;;;;;;351589;28;809;-76
2021/11/16 00:28:15;;;;;;;;;;;;;;;;;;351612;28;920;-76
2021/11/16 00:28:25;;;;;;;;;;;;;;;;;;351586;28;809;-75
2021/11/16 00:28:35;;;;;;;;;;;;;;;;;;351580;28;841;-75
2021/11/16 00:28:46;;;;;;;;;;;;;;;;;;351571;28;971;-75
2021/11/16 00:28:56;;;;;;;;;;;;;;;;;;351611;28;885;-76
2021/11/16 00:29:07;;;;;;;;;;;;;;;;;;351527;28;1026;-75
2021/11/16 00:29:17;;;;;;;;;;;;;;;;;;351519;28;972;-75
2021/11/16 00:29:28;;;;;;;;;;;;;;;;;;351503;28;790;-75
2021/11/16 00:29:38;;;;;;;;;;;;;;;;;;351524;28;856;-76
2021/11/16 00:30:15;;;;;;;;;;;;;;;;;;351544;28;955;-75
2021/11/16 00:30:25;;;;;;;;;;;;;;;;;;351638;28;959;-75
2021/11/16 00:30:36;;;;;;;;;;;;;;;;;;351439;28;952;-75
2021/11/16 00:30:46;;;;;;;;;;;;;;;;;;351538;28;868;-75
2021/11/16 00:30:57;;;;;;;;;;;;;;;;;;351562;28;849;-75
2021/11/16 00:31:34;;;;;;;;;;;;;;;;;;351450;28;928;-75
2021/11/16 00:31:44;;;;;;;;;;;;;;;;;;351462;28;896;-76
2021/11/16 00:31:54;;;;;;;;;;;;;;;;;;351502;28;904;-75
2021/11/16 00:32:06;;;;;;;;;;;;;;;;;;351469;28;979;-76
2021/11/16 00:32:19;;;;;;;;;;;;;;;;;;351403;28;939;-75
2021/11/16 00:33:27;;;;;;;;;;;;;;;;;;351537;28;992;-75
2021/11/16 00:33:37;;;;;;;;;;;;;;;;;;351568;28;1024;-75
2021/11/16 00:33:48;;;;;;;;;;;;;;;;;;351616;28;809;-76
2021/11/16 00:33:59;;;;;;;;;;;;;;;;;;351606;28;852;-76
2021/11/16 00:34:09;;;;;;;;;;;;;;;;;;351509;28;979;-75
2021/11/16 00:34:49;;;;;;;;;;;;;;;;;;351514;28;908;-76
2021/11/16 00:34:59;;;;;;;;;;;;;;;;;;351525;28;916;-75
2021/11/16 00:35:10;;;;;;;;;;;;;;;;;;351620;28;988;-75
2021/11/16 00:35:20;;;;;;;;;;;;;;;;;;351566;28;876;-74
2021/11/16 00:35:30;;;;;;;;;;;;;;;;;;351599;28;840;-75
2021/11/16 00:36:08;;;;;;;;;;;;;;;;;;351546;28;837;-75
2021/11/16 00:36:19;;;;;;;;;;;;;;;;;;351545;28;980;-74
2021/11/16 00:36:29;;;;;;;;;;;;;;;;;;351599;28;817;-74
2021/11/16 00:36:55;;;;;;;;;;;;;;;;;;351556;28;845;-75
2021/11/16 00:37:06;;;;;;;;;;;;;;;;;;351593;28;967;-75
2021/11/16 00:37:24;;;;;;;;;;;;;;;;;;351584;28;845;-75
2021/11/16 00:37:35;;;;;;;;;;;;;;;;;;351546;28;1003;-75
2021/11/16 00:37:46;;;;;;;;;;;;;;;;;;351612;28;798;-76
2021/11/16 00:37:56;;;;;;;;;;;;;;;;;;351570;28;943;-75
2021/11/16 00:38:08;;;;;;;;;;;;;;;;;;351537;28;980;-75
2021/11/16 00:38:20;;;;;;;;;;;;;;;;;;351575;28;960;-75
2021/11/16 00:38:31;;;;;;;;;;;;;;;;;;351377;28;1195;-76
2021/11/16 00:38:41;;;;;;;;;;;;;;;;;;351566;28;798;-76
2021/11/16 00:38:52;;;;;;;;;;;;;;;;;;351510;28;945;-77
2021/11/16 00:39:03;;;;;;;;;;;;;;;;;;351387;28;814;-76
2021/11/16 00:39:13;;;;;;;;;;;;;;;;;;351484;28;960;-75
2021/11/16 00:39:24;;;;;;;;;;;;;;;;;;351393;28;1048;-75
2021/11/16 00:39:35;;;;;;;;;;;;;;;;;;351434;28;1902;-75
2021/11/16 00:39:45;;;;;;;;;;;;;;;;;;351375;28;983;-75
2021/11/16 00:39:56;;;;;;;;;;;;;;;;;;351361;28;1039;-76
2021/11/16 00:40:10;;;;;;;;;;;;;;;;;;351477;28;912;-76
2021/11/16 00:40:20;;;;;;;;;;;;;;;;;;351464;28;817;-75
2021/11/16 00:40:30;;;;;;;;;;;;;;;;;;351455;28;976;-75
2021/11/16 00:40:41;;;;;;;;;;;;;;;;;;351475;28;833;-76
2021/11/16 00:40:52;;;;;;;;;;;;;;;;;;351490;28;813;-75
2021/11/16 00:41:03;;;;;;;;;;;;;;;;;;351544;28;813;-76
2021/11/16 00:41:14;;;;;;;;;;;;;;;;;;351588;28;1023;-75
2021/11/16 00:41:25;;;;;;;;;;;;;;;;;;351571;28;824;-76
2021/11/16 00:41:35;;;;;;;;;;;;;;;;;;351621;28;793;-75
2021/11/16 00:42:11;;;;;;;;;;;;;;;;;;351558;28;940;-76
2021/11/16 00:42:21;;;;;;;;;;;;;;;;;;351564;28;1102;-75
2021/11/16 00:42:32;;;;;;;;;;;;;;;;;;351571;28;968;-75
2021/11/16 00:42:43;;;;;;;;;;;;;;;;;;351562;28;904;-74
2021/11/16 00:42:53;;;;;;;;;;;;;;;;;;351560;28;829;-75
2021/11/16 00:43:05;;;;;;;;;;;;;;;;;;351529;28;970;-75
2021/11/16 00:43:15;;;;;;;;;;;;;;;;;;351598;28;979;-75
2021/11/16 00:43:26;;;;;;;;;;;;;;;;;;351455;28;1015;-75
2021/11/16 00:43:36;;;;;;;;;;;;;;;;;;351624;28;805;-74
2021/11/16 00:43:47;;;;;;;;;;;;;;;;;;351611;28;798;-75
2021/11/16 00:43:58;;;;;;;;;;;;;;;;;;351442;28;769;-75
2021/11/16 00:44:08;;;;;;;;;;;;;;;;;;351434;28;1081;-75
2021/11/16 00:44:18;;;;;;;;;;;;;;;;;;351476;28;951;-75
2021/11/16 00:44:29;;;;;;;;;;;;;;;;;;351444;28;848;-75
2021/11/16 00:44:39;;;;;;;;;;;;;;;;;;351521;28;860;-75
2021/11/16 00:45:17;;;;;;;;;;;;;;;;;;351492;28;931;-74
2021/11/16 00:45:27;;;;;;;;;;;;;;;;;;351474;28;917;-75
2021/11/16 00:45:41;;;;;;;;;;;;;;;;;;351471;28;813;-75
2021/11/16 00:45:51;;;;;;;;;;;;;;;;;;351894;28;872;-75
2021/11/16 00:46:01;;;;;;;;;;;;;;;;;;352821;28;1186;-75
2021/11/16 00:46:12;;;;;;;;;;;;;;;;;;352856;28;923;-75
2021/11/16 00:46:22;;;;;;;;;;;;;;;;;;352511;28;968;-75
2021/11/16 00:46:59;;;;;;;;;;;;;;;;;;351526;28;1027;-75
2021/11/16 00:47:29;;;;;;;;;;;;;;;;;;348659;28;1195;-75
2021/11/16 00:47:41;;;;;;;;;;;;;;;;;;348613;28;976;-75
2021/11/16 00:47:51;;;;;;;;;;;;;;;;;;350521;28;1137;-74
2021/11/16 00:48:28;;;;;;;;;;;;;;;;;;351504;28;936;-74
2021/11/16 00:48:38;;;;;;;;;;;;;;;;;;351576;28;1001;-75
2021/11/16 00:48:49;;;;;;;;;;;;;;;;;;351553;28;840;-74
2021/11/16 00:48:59;;;;;;;;;;;;;;;;;;351596;28;860;-74
2021/11/16 00:49:10;;;;;;;;;;;;;;;;;;351503;28;982;-75
2021/11/16 00:49:29;;;;;;;;;;;;;;;;;;351545;28;860;-75
2021/11/16 00:49:39;;;;;;;;;;;;;;;;;;351584;28;891;-76
2021/11/16 00:49:53;;;;;;;;;;;;;;;;;;351453;28;996;-75
2021/11/16 00:50:03;;;;;;;;;;;;;;;;;;351307;28;988;-74
2021/11/16 00:50:17;;;;;;;;;;;;;;;;;;351434;28;980;-74
2021/11/16 00:50:28;;;;;;;;;;;;;;;;;;351484;28;853;-76
2021/11/16 00:50:40;;;;;;;;;;;;;;;;;;351544;28;864;-75
2021/11/16 00:50:52;;;;;;;;;;;;;;;;;;351471;28;857;-75
2021/11/16 00:51:30;;;;;;;;;;;;;;;;;;351427;28;999;-75
2021/11/16 00:51:42;;;;;;;;;;;;;;;;;;351483;28;793;-75
2021/11/16 00:51:52;;;;;;;;;;;;;;;;;;351402;28;1229;-76
2021/11/16 00:52:03;;;;;;;;;;;;;;;;;;351492;28;849;-75
2021/11/16 00:52:14;;;;;;;;;;;;;;;;;;351355;28;987;-76
2021/11/16 00:52:24;;;;;;;;;;;;;;;;;;351437;28;908;-75
2021/11/16 00:52:35;;;;;;;;;;;;;;;;;;351541;28;825;-76
2021/11/16 00:52:45;;;;;;;;;;;;;;;;;;351467;28;908;-73
2021/11/16 00:52:56;;;;;;;;;;;;;;;;;;351533;28;880;-74
2021/11/16 00:53:16;;;;;;;;;;;;;;;;;;351482;28;845;-75
2021/11/16 00:53:30;;;;;;;;;;;;;;;;;;351452;28;984;-76
2021/11/16 00:53:42;;;;;;;;;;;;;;;;;;351491;28;940;-75
2021/11/16 00:53:52;;;;;;;;;;;;;;;;;;351514;28;845;-75
2021/11/16 00:54:05;;;;;;;;;;;;;;;;;;351598;28;884;-75
2021/11/16 00:54:16;;;;;;;;;;;;;;;;;;351554;28;920;-75
2021/11/16 00:54:52;;;;;;;;;;;;;;;;;;351530;28;932;-74
2021/11/16 00:55:03;;;;;;;;;;;;;;;;;;351542;28;821;-75
2021/11/16 00:55:14;;;;;;;;;;;;;;;;;;351509;28;972;-75
2021/11/16 00:55:24;;;;;;;;;;;;;;;;;;351560;28;845;-75
2021/11/16 00:55:35;;;;;;;;;;;;;;;;;;351608;28;841;-76
2021/11/16 00:55:46;;;;;;;;;;;;;;;;;;351566;28;964;-76
2021/11/16 00:55:57;;;;;;;;;;;;;;;;;;351546;28;865;-74
2021/11/16 00:56:08;;;;;;;;;;;;;;;;;;351600;28;774;-74
2021/11/16 00:56:19;;;;;;;;;;;;;;;;;;351558;28;864;-76
2021/11/16 00:56:29;;;;;;;;;;;;;;;;;;351556;28;860;-75
2021/11/16 00:56:40;;;;;;;;;;;;;;;;;;351488;28;790;-76
2021/11/16 00:56:50;;;;;;;;;;;;;;;;;;351587;28;892;-76
2021/11/16 00:57:01;;;;;;;;;;;;;;;;;;351542;28;865;-75
2021/11/16 00:57:11;;;;;;;;;;;;;;;;;;351534;28;1208;-75
2021/11/16 00:57:22;;;;;;;;;;;;;;;;;;351534;28;853;-75
2021/11/16 00:57:32;;;;;;;;;;;;;;;;;;351582;28;461;-75
2021/11/16 00:57:43;;;;;;;;;;;;;;;;;;351554;28;1034;-75
2021/11/16 00:57:54;;;;;;;;;;;;;;;;;;351563;28;449;-74
2021/11/16 00:58:04;;;;;;;;;;;;;;;;;;351442;28;1050;-74
2021/11/16 00:58:15;;;;;;;;;;;;;;;;;;351577;28;770;-74
2021/11/16 00:58:25;;;;;;;;;;;;;;;;;;351581;28;912;-74
2021/11/16 00:58:36;;;;;;;;;;;;;;;;;;351593;28;786;-75
2021/11/16 00:59:13;;;;;;;;;;;;;;;;;;351520;28;925;-75
2021/11/16 00:59:23;;;;;;;;;;;;;;;;;;351570;28;869;-75
2021/11/16 00:59:33;;;;;;;;;;;;;;;;;;351533;28;1960;-75
2021/11/16 00:59:44;;;;;;;;;;;;;;;;;;351506;28;781;-76
2021/11/16 00:59:54;;;;;;;;;;;;;;;;;;351563;28;1043;-75
2021/11/16 01:00:05;;;;;;;;;;;;;;;;;;351520;28;1051;-76
2021/11/16 01:00:16;;;;;;;;;;;;;;;;;;351446;28;830;-74
2021/11/16 01:00:27;;;;;;;;;;;;;;;;;;351493;28;908;-75
2021/11/16 01:00:38;;;;;;;;;;;;;;;;;;351554;28;1011;-75
2021/11/16 01:00:49;;;;;;;;;;;;;;;;;;351455;28;1058;-75
2021/11/16 01:01:00;;;;;;;;;;;;;;;;;;351540;28;928;-75
2021/11/16 01:01:10;;;;;;;;;;;;;;;;;;351343;28;984;-76
2021/11/16 01:01:20;;;;;;;;;;;;;;;;;;351476;28;789;-75
2021/11/16 01:01:31;;;;;;;;;;;;;;;;;;351518;28;777;-75
2021/11/16 01:01:41;;;;;;;;;;;;;;;;;;351403;28;984;-75
2021/11/16 01:01:52;;;;;;;;;;;;;;;;;;351434;28;971;-75
2021/11/16 01:02:02;;;;;;;;;;;;;;;;;;351459;28;987;-75
2021/11/16 01:02:28;;;;;;;;;;;;;;;;;;351439;28;868;-75
2021/11/16 01:02:38;;;;;;;;;;;;;;;;;;351432;28;967;-75
2021/11/16 01:02:49;;;;;;;;;;;;;;;;;;351392;28;1075;-74
2021/11/16 01:02:59;;;;;;;;;;;;;;;;;;351433;28;856;-75
2021/11/16 01:03:10;;;;;;;;;;;;;;;;;;351506;28;955;-75
2021/11/16 01:03:47;;;;;;;;;;;;;;;;;;351555;28;822;-74
2021/11/16 01:03:59;;;;;;;;;;;;;;;;;;351436;28;853;-75
2021/11/16 01:04:10;;;;;;;;;;;;;;;;;;351433;28;825;-76
2021/11/16 01:04:20;;;;;;;;;;;;;;;;;;350022;28;1433;-75
2021/11/16 01:04:31;;;;;;;;;;;;;;;;;;350053;28;936;-75
2021/11/16 01:04:47;;;;;;;;;;;;;;;;;;348673;28;802;-75
2021/11/16 01:04:58;;;;;;;;;;;;;;;;;;348716;28;814;-75
2021/11/16 01:05:12;;;;;;;;;;;;;;;;;;348648;28;968;-75
2021/11/16 01:05:22;;;;;;;;;;;;;;;;;;348516;28;1062;-75
2021/11/16 01:05:33;;;;;;;;;;;;;;;;;;348542;28;917;-76
2021/11/16 01:05:44;;;;;;;;;;;;;;;;;;348613;28;830;-75
2021/11/16 01:05:54;;;;;;;;;;;;;;;;;;349477;28;972;-77
2021/11/16 01:06:05;;;;;;;;;;;;;;;;;;350001;28;783;-75
2021/11/16 01:06:15;;;;;;;;;;;;;;;;;;350614;28;1158;-75
2021/11/16 01:06:26;;;;;;;;;;;;;;;;;;351426;28;972;-75
2021/11/16 01:06:36;;;;;;;;;;;;;;;;;;351421;28;956;-75
2021/11/16 01:06:47;;;;;;;;;;;;;;;;;;351515;28;967;-75
2021/11/16 01:06:57;;;;;;;;;;;;;;;;;;351580;28;877;-75
2021/11/16 01:07:07;;;;;;;;;;;;;;;;;;351553;28;806;-75
2021/11/16 01:07:19;;;;;;;;;;;;;;;;;;351593;28;829;-75
2021/11/16 01:07:31;;;;;;;;;;;;;;;;;;351538;28;963;-74
2021/11/16 01:07:42;;;;;;;;;;;;;;;;;;351446;28;786;-76
2021/11/16 01:07:53;;;;;;;;;;;;;;;;;;351385;28;912;-74
2021/11/16 01:08:03;;;;;;;;;;;;;;;;;;351480;28;964;-75
2021/11/16 01:08:14;;;;;;;;;;;;;;;;;;351460;28;849;-74
2021/11/16 01:08:24;;;;;;;;;;;;;;;;;;351448;28;979;-74
2021/11/16 01:08:35;;;;;;;;;;;;;;;;;;351468;28;975;-74
2021/11/16 01:08:45;;;;;;;;;;;;;;;;;;351479;28;872;-75
2021/11/16 01:08:57;;;;;;;;;;;;;;;;;;351431;28;848;-74
2021/11/16 01:09:08;;;;;;;;;;;;;;;;;;351486;28;991;-75
2021/11/16 01:09:19;;;;;;;;;;;;;;;;;;351476;28;900;-76
2021/11/16 01:09:59;;;;;;;;;;;;;;;;;;351428;28;991;-74
2021/11/16 01:10:28;;;;;;;;;;;;;;;;;;351491;28;628;-73
2021/11/16 01:10:39;;;;;;;;;;;;;;;;;;351535;28;876;-74
2021/11/16 01:10:50;;;;;;;;;;;;;;;;;;351511;28;817;-74
2021/11/16 01:11:01;;;;;;;;;;;;;;;;;;351543;28;1000;-74
2021/11/16 01:11:11;;;;;;;;;;;;;;;;;;351479;28;1431;-73
2021/11/16 01:11:22;;;;;;;;;;;;;;;;;;351520;28;904;-74
2021/11/16 01:11:32;;;;;;;;;;;;;;;;;;351616;28;1023;-73
2021/11/16 01:11:43;;;;;;;;;;;;;;;;;;351563;28;836;-74
2021/11/16 01:11:53;;;;;;;;;;;;;;;;;;351510;28;999;-74
2021/11/16 01:12:04;;;;;;;;;;;;;;;;;;351405;28;841;-73
2021/11/16 01:12:15;;;;;;;;;;;;;;;;;;351342;28;912;-74
2021/11/16 01:12:26;;;;;;;;;;;;;;;;;;351481;28;995;-76
2021/11/16 01:12:37;;;;;;;;;;;;;;;;;;351357;28;1308;-75
2021/11/16 01:12:48;;;;;;;;;;;;;;;;;;351494;28;818;-74
2021/11/16 01:12:58;;;;;;;;;;;;;;;;;;351385;28;897;-74
2021/11/16 01:13:09;;;;;;;;;;;;;;;;;;351418;28;853;-75
2021/11/16 01:13:21;;;;;;;;;;;;;;;;;;351399;28;910;-75
2021/11/16 01:13:31;;;;;;;;;;;;;;;;;;351365;28;1528;-74
2021/11/16 01:13:42;;;;;;;;;;;;;;;;;;351436;28;948;-75
2021/11/16 01:13:52;;;;;;;;;;;;;;;;;;351419;28;810;-74
2021/11/16 01:14:03;;;;;;;;;;;;;;;;;;350281;28;821;-75
2021/11/16 01:14:14;;;;;;;;;;;;;;;;;;350163;28;848;-75
2021/11/16 01:14:24;;;;;;;;;;;;;;;;;;350043;28;917;-75
2021/11/16 01:14:35;;;;;;;;;;;;;;;;;;350105;28;868;-74
2021/11/16 01:14:45;;;;;;;;;;;;;;;;;;350102;28;842;-73
2021/11/16 01:14:57;;;;;;;;;;;;;;;;;;350083;28;983;-74
2021/11/16 01:15:09;;;;;;;;;;;;;;;;;;350105;28;739;-74
2021/11/16 01:15:20;;;;;;;;;;;;;;;;;;350186;28;943;-75
2021/11/16 01:15:32;;;;;;;;;;;;;;;;;;350077;28;817;-74
2021/11/16 01:15:44;;;;;;;;;;;;;;;;;;350101;28;861;-74
2021/11/16 01:15:54;;;;;;;;;;;;;;;;;;350183;28;972;-75
2021/11/16 01:16:05;;;;;;;;;;;;;;;;;;350114;28;841;-75
2021/11/16 01:16:15;;;;;;;;;;;;;;;;;;350038;28;1032;-76
2021/11/16 01:16:26;;;;;;;;;;;;;;;;;;350152;28;1004;-75
2021/11/16 01:16:36;;;;;;;;;;;;;;;;;;350075;28;1027;-76
2021/11/16 01:16:47;;;;;;;;;;;;;;;;;;350101;28;1131;-75
2021/11/16 01:16:58;;;;;;;;;;;;;;;;;;350193;28;840;-74
2021/11/16 01:17:09;;;;;;;;;;;;;;;;;;350155;28;810;-74
2021/11/16 01:17:20;;;;;;;;;;;;;;;;;;350201;28;1015;-75
2021/11/16 01:17:30;;;;;;;;;;;;;;;;;;350116;28;908;-74
2021/11/16 01:17:41;;;;;;;;;;;;;;;;;;350057;28;837;-74
2021/11/16 01:17:51;;;;;;;;;;;;;;;;;;350085;28;1004;-75
2021/11/16 01:18:02;;;;;;;;;;;;;;;;;;349993;28;904;-73
2021/11/16 01:18:13;;;;;;;;;;;;;;;;;;350054;28;932;-73
2021/11/16 01:18:25;;;;;;;;;;;;;;;;;;350010;28;972;-74
2021/11/16 01:18:35;;;;;;;;;;;;;;;;;;350004;28;973;-74
2021/11/16 01:18:45;;;;;;;;;;;;;;;;;;350013;28;841;-74
2021/11/16 01:18:56;;;;;;;;;;;;;;;;;;349925;28;948;-75
2021/11/16 01:19:07;;;;;;;;;;;;;;;;;;350005;28;1008;-75
2021/11/16 01:19:43;;;;;;;;;;;;;;;;;;351421;28;873;-75
2021/11/16 01:19:54;;;;;;;;;;;;;;;;;;349832;28;1203;-75
2021/11/16 01:20:32;;;;;;;;;;;;;;;;;;349984;28;979;-74
2021/11/16 01:20:42;;;;;;;;;;;;;;;;;;349912;28;817;-74
2021/11/16 01:20:53;;;;;;;;;;;;;;;;;;350004;28;838;-74
2021/11/16 01:21:03;;;;;;;;;;;;;;;;;;349951;28;810;-75
2021/11/16 01:21:14;;;;;;;;;;;;;;;;;;348666;28;1163;-74
2021/11/16 01:21:24;;;;;;;;;;;;;;;;;;348656;28;972;-74
2021/11/16 01:21:36;;;;;;;;;;;;;;;;;;348698;28;826;-75
2021/11/16 01:21:46;;;;;;;;;;;;;;;;;;348590;28;977;-74
2021/11/16 01:22:50;;;;;;;;;;;;;;;;;;348609;28;814;-77
2021/11/16 01:23:02;;;;;;;;;;;;;;;;;;348648;28;841;-76
2021/11/16 01:23:13;;;;;;;;;;;;;;;;;;349558;28;1047;-76
2021/11/16 01:23:23;;;;;;;;;;;;;;;;;;349881;28;1027;-76
2021/11/16 01:23:34;;;;;;;;;;;;;;;;;;350113;28;846;-77
2021/11/16 01:23:46;;;;;;;;;;;;;;;;;;350081;28;944;-76
2021/11/16 01:23:56;;;;;;;;;;;;;;;;;;350082;28;1016;-77
2021/11/16 01:24:08;;;;;;;;;;;;;;;;;;350094;28;984;-77
2021/11/16 01:24:18;;;;;;;;;;;;;;;;;;350170;28;920;-76
2021/11/16 01:24:28;;;;;;;;;;;;;;;;;;349967;28;1312;-77
2021/11/16 01:24:39;;;;;;;;;;;;;;;;;;350075;28;889;-76
2021/11/16 01:24:50;;;;;;;;;;;;;;;;;;350025;28;813;-76
2021/11/16 01:25:00;;;;;;;;;;;;;;;;;;350042;28;980;-77
2021/11/16 01:25:12;;;;;;;;;;;;;;;;;;350004;28;864;-77
2021/11/16 01:25:26;;;;;;;;;;;;;;;;;;350078;28;991;-77
2021/11/16 01:25:53;;;;;;;;;;;;;;;;;;349861;28;1031;-76
2021/11/16 01:26:03;;;;;;;;;;;;;;;;;;350035;28;1156;-76
2021/11/16 01:26:16;;;;;;;;;;;;;;;;;;350008;28;920;-78
2021/11/16 01:26:27;;;;;;;;;;;;;;;;;;350998;28;1035;-76
2021/11/16 01:26:37;;;;;;;;;;;;;;;;;;351448;28;1030;-78
2021/11/16 01:26:49;;;;;;;;;;;;;;;;;;351475;28;837;-76
2021/11/16 01:27:00;;;;;;;;;;;;;;;;;;351461;28;912;-76
2021/11/16 01:27:14;;;;;;;;;;;;;;;;;;351370;28;999;-76
2021/11/16 01:27:26;;;;;;;;;;;;;;;;;;351418;28;925;-76
2021/11/16 01:27:55;;;;;;;;;;;;;;;;;;351478;28;927;-76
2021/11/16 01:28:13;;;;;;;;;;;;;;;;;;351450;28;868;-77
2021/11/16 01:28:27;;;;;;;;;;;;;;;;;;350546;28;916;-76
2021/11/16 01:28:37;;;;;;;;;;;;;;;;;;350076;28;806;-75
2021/11/16 01:28:48;;;;;;;;;;;;;;;;;;350030;28;971;-76
2021/11/16 01:29:00;;;;;;;;;;;;;;;;;;350079;28;814;-76
2021/11/16 01:29:11;;;;;;;;;;;;;;;;;;350016;28;849;-77
2021/11/16 01:29:23;;;;;;;;;;;;;;;;;;349998;28;861;-76
2021/11/16 01:29:37;;;;;;;;;;;;;;;;;;350024;28;813;-77
2021/11/16 01:29:49;;;;;;;;;;;;;;;;;;350056;28;806;-77
2021/11/16 01:30:27;;;;;;;;;;;;;;;;;;349953;28;1035;-76
2021/11/16 01:30:40;;;;;;;;;;;;;;;;;;350004;28;984;-78
2021/11/16 01:30:52;;;;;;;;;;;;;;;;;;349917;28;1004;-76
2021/11/16 01:31:04;;;;;;;;;;;;;;;;;;350052;28;896;-77
2021/11/16 01:31:34;;;;;;;;;;;;;;;;;;350152;28;929;-77
2021/11/16 01:31:44;;;;;;;;;;;;;;;;;;350091;28;936;-77
2021/11/16 01:31:56;;;;;;;;;;;;;;;;;;350087;28;980;-78
2021/11/16 01:32:15;;;;;;;;;;;;;;;;;;350161;28;1000;-78
2021/11/16 01:32:49;;;;;;;;;;;;;;;;;;350128;28;999;-77
2021/11/16 01:33:05;;;;;;;;;;;;;;;;;;349701;28;1199;-77
2021/11/16 01:33:19;;;;;;;;;;;;;;;;;;350152;28;790;-78
2021/11/16 01:34:01;;;;;;;;;;;;;;;;;;350136;28;802;-77
2021/11/16 01:34:12;;;;;;;;;;;;;;;;;;350099;28;1011;-77
2021/11/16 01:34:31;;;;;;;;;;;;;;;;;;350123;28;908;-77
2021/11/16 01:34:46;;;;;;;;;;;;;;;;;;350129;28;964;-76
2021/11/16 01:34:56;;;;;;;;;;;;;;;;;;349961;28;814;-77
2021/11/16 01:35:25;;;;;;;;;;;;;;;;;;350016;28;651;-77
2021/11/16 01:35:37;;;;;;;;;;;;;;;;;;350066;28;951;-77
2021/11/16 01:35:48;;;;;;;;;;;;;;;;;;349932;28;873;-76
2021/11/16 01:35:58;;;;;;;;;;;;;;;;;;349860;28;1039;-77
2021/11/16 01:36:27;;;;;;;;;;;;;;;;;;350056;28;580;-78
2021/11/16 01:36:38;;;;;;;;;;;;;;;;;;348646;28;838;-78
2021/11/16 01:36:48;;;;;;;;;;;;;;;;;;348598;28;861;-78
2021/11/16 01:37:25;;;;;;;;;;;;;;;;;;350036;28;1000;-78
2021/11/16 01:37:37;;;;;;;;;;;;;;;;;;349967;28;1039;-77
2021/11/16 01:38:16;;;;;;;;;;;;;;;;;;350046;28;557;-76
2021/11/16 01:38:55;;;;;;;;;;;;;;;;;;350038;28;1024;-78
2021/11/16 01:39:06;;;;;;;;;;;;;;;;;;350101;28;817;-77
2021/11/16 01:39:16;;;;;;;;;;;;;;;;;;350133;28;995;-77
2021/11/16 01:39:27;;;;;;;;;;;;;;;;;;350124;28;790;-76
2021/11/16 01:39:37;;;;;;;;;;;;;;;;;;350029;28;1975;-76
2021/11/16 01:39:49;;;;;;;;;;;;;;;;;;350082;28;972;-77
2021/11/16 01:40:01;;;;;;;;;;;;;;;;;;350076;28;810;-77
2021/11/16 01:40:18;;;;;;;;;;;;;;;;;;350059;28;1039;-76
2021/11/16 01:40:54;;;;;;;;;;;;;;;;;;350080;28;956;-78
2021/11/16 01:41:04;;;;;;;;;;;;;;;;;;349998;28;1004;-77
2021/11/16 01:41:15;;;;;;;;;;;;;;;;;;350012;28;821;-77
2021/11/16 01:41:26;;;;;;;;;;;;;;;;;;350146;28;968;-78
2021/11/16 01:41:57;;;;;;;;;;;;;;;;;;351348;28;933;-78
2021/11/16 01:42:07;;;;;;;;;;;;;;;;;;351433;28;996;-77
2021/11/16 01:42:19;;;;;;;;;;;;;;;;;;351420;28;912;-77